Pagrindinis puslapis
METAR-TAF:

METAR-TAF

Oro uostai :

Brianskas, Rusija

platuma: 53-15N, ilguma: 034-19E, Aukštis: 217 m

Dabartinis oras

Ataskaita buvo paskelbta 42 minutes, ne 08:00 UTC
Vėjas 2 kt nuo kintamojo kryptimis
Temperatūra 14°C
Drėgmė 67%
Slėgis 1019 hPa
Matomumas 10 km arba daugiau
nėra debesų žemiau 1500 m ir nėra kamuolinių lietaus debesų

METAR: UUBP 180800Z VRB01MPS CAVOK 14/08 Q1019 R34/CLRD70 NOSIG RMK QFE747/0996

Laikas: 11:42 (08:42 UTC)

Prognozė

Ataskaita buvo paskelbta 3 valandos ir 53 minutes, ne 04:49 UTC
Prognozė galioja nuo 18 metu 06 UTC su 18 metu 15 UTC
Vėjas 6 kt iš Vakarų
Matomumas 10 km arba daugiau
Išsisklaidę debesys ne aukštis 4000 ft

TAF: UUBP 180449Z 1806/1815 26003MPS 9999 SCT040

Orai ataskaitas ir orų prognozės (METAR, TAF).

turimą stotys yra geltonos ir raudonos taškus žemėlapyje.

Perkelti pele per norėdami pamatyti stoties vardą.

Tada spustelėkite, norėdami matyti oro stebėjimo ir prognozės.

Norėdami pakeisti žemėlapį: spustelėkite ant žalios mygtukų su juodo kryžiaus žemyn,; žalią mygtuką su brūkšneliu, jei norite nutolinti; arba žalių rodyklių gretimoms žemėlapius.


METAR-TAF: